sensor_id;sensor_type;location;lat;lon;timestamp;temperature;humidity
12872;DHT22;6504;53.766;9.626;2022-10-04T00:01:47;11.50;99.90
12872;DHT22;6504;53.766;9.626;2022-10-04T00:04:22;11.50;99.90
12872;DHT22;6504;53.766;9.626;2022-10-04T00:06:56;11.50;99.90
12872;DHT22;6504;53.766;9.626;2022-10-04T00:09:29;11.50;99.90
12872;DHT22;6504;53.766;9.626;2022-10-04T00:11:59;11.50;99.90
12872;DHT22;6504;53.766;9.626;2022-10-04T00:14:31;11.50;99.90
12872;DHT22;6504;53.766;9.626;2022-10-04T00:17:11;11.50;99.90
12872;DHT22;6504;53.766;9.626;2022-10-04T00:19:45;11.50;99.90
12872;DHT22;6504;53.766;9.626;2022-10-04T00:22:19;11.50;99.90
12872;DHT22;6504;53.766;9.626;2022-10-04T00:25:15;11.50;99.90
12872;DHT22;6504;53.766;9.626;2022-10-04T00:33:58;11.40;99.90
12872;DHT22;6504;53.766;9.626;2022-10-04T00:36:51;11.40;99.90
12872;DHT22;6504;53.766;9.626;2022-10-04T00:39:42;11.40;99.90
12872;DHT22;6504;53.766;9.626;2022-10-04T00:42:35;11.40;99.90
12872;DHT22;6504;53.766;9.626;2022-10-04T00:45:15;11.30;99.90
12872;DHT22;6504;53.766;9.626;2022-10-04T00:48:02;11.30;99.90
12872;DHT22;6504;53.766;9.626;2022-10-04T00:50:38;11.30;99.90
12872;DHT22;6504;53.766;9.626;2022-10-04T00:53:20;11.30;99.90
12872;DHT22;6504;53.766;9.626;2022-10-04T00:55:51;11.30;99.90
12872;DHT22;6504;53.766;9.626;2022-10-04T00:58:23;11.30;99.90
12872;DHT22;6504;53.766;9.626;2022-10-04T01:00:53;11.30;99.90
12872;DHT22;6504;53.766;9.626;2022-10-04T01:03:26;11.30;99.90
12872;DHT22;6504;53.766;9.626;2022-10-04T01:05:59;11.30;99.90
12872;DHT22;6504;53.766;9.626;2022-10-04T01:08:35;11.30;99.90
12872;DHT22;6504;53.766;9.626;2022-10-04T01:11:08;11.30;99.90
12872;DHT22;6504;53.766;9.626;2022-10-04T01:13:44;11.30;99.90
12872;DHT22;6504;53.766;9.626;2022-10-04T01:16:17;11.30;99.90
12872;DHT22;6504;53.766;9.626;2022-10-04T01:18:46;11.30;99.90
12872;DHT22;6504;53.766;9.626;2022-10-04T01:21:24;11.30;99.90
12872;DHT22;6504;53.766;9.626;2022-10-04T01:24:20;11.30;99.90
12872;DHT22;6504;53.766;9.626;2022-10-04T01:26:50;11.20;99.90
12872;DHT22;6504;53.766;9.626;2022-10-04T01:29:23;11.20;99.90
12872;DHT22;6504;53.766;9.626;2022-10-04T01:31:55;11.20;99.90
12872;DHT22;6504;53.766;9.626;2022-10-04T01:34:29;11.20;99.90
12872;DHT22;6504;53.766;9.626;2022-10-04T01:36:59;11.20;99.90
12872;DHT22;6504;53.766;9.626;2022-10-04T01:39:32;11.20;99.90
12872;DHT22;6504;53.766;9.626;2022-10-04T01:42:06;11.20;99.90
12872;DHT22;6504;53.766;9.626;2022-10-04T01:44:39;11.20;99.90
12872;DHT22;6504;53.766;9.626;2022-10-04T01:47:17;11.20;99.90
12872;DHT22;6504;53.766;9.626;2022-10-04T01:49:46;11.20;99.90
12872;DHT22;6504;53.766;9.626;2022-10-04T01:52:21;11.20;99.90
12872;DHT22;6504;53.766;9.626;2022-10-04T01:54:57;11.10;99.90
12872;DHT22;6504;53.766;9.626;2022-10-04T01:57:35;11.10;99.90
12872;DHT22;6504;53.766;9.626;2022-10-04T02:00:05;11.10;99.90
12872;DHT22;6504;53.766;9.626;2022-10-04T02:02:42;11.10;99.90
12872;DHT22;6504;53.766;9.626;2022-10-04T02:05:16;11.20;99.90
12872;DHT22;6504;53.766;9.626;2022-10-04T02:07:48;11.20;99.90
12872;DHT22;6504;53.766;9.626;2022-10-04T02:10:20;11.10;99.90
12872;DHT22;6504;53.766;9.626;2022-10-04T02:12:52;11.10;99.90
12872;DHT22;6504;53.766;9.626;2022-10-04T02:15:26;11.20;99.90
12872;DHT22;6504;53.766;9.626;2022-10-04T02:17:55;11.10;99.90
12872;DHT22;6504;53.766;9.626;2022-10-04T02:20:28;11.20;99.90
12872;DHT22;6504;53.766;9.626;2022-10-04T02:22:58;11.10;99.90
12872;DHT22;6504;53.766;9.626;2022-10-04T02:25:35;11.20;99.90
12872;DHT22;6504;53.766;9.626;2022-10-04T02:28:03;11.20;99.90
12872;DHT22;6504;53.766;9.626;2022-10-04T02:30:35;11.20;99.90
12872;DHT22;6504;53.766;9.626;2022-10-04T02:33:03;11.20;99.90
12872;DHT22;6504;53.766;9.626;2022-10-04T02:35:35;11.10;99.90
12872;DHT22;6504;53.766;9.626;2022-10-04T02:38:09;11.10;99.90
12872;DHT22;6504;53.766;9.626;2022-10-04T02:40:48;11.10;99.90
12872;DHT22;6504;53.766;9.626;2022-10-04T02:43:24;11.10;99.90
12872;DHT22;6504;53.766;9.626;2022-10-04T02:45:59;11.10;99.90
12872;DHT22;6504;53.766;9.626;2022-10-04T02:48:36;11.10;99.90
12872;DHT22;6504;53.766;9.626;2022-10-04T02:51:17;11.10;99.90
12872;DHT22;6504;53.766;9.626;2022-10-04T02:53:54;11.00;99.90
12872;DHT22;6504;53.766;9.626;2022-10-04T02:56:31;11.00;99.90
12872;DHT22;6504;53.766;9.626;2022-10-04T02:59:01;11.00;99.90
12872;DHT22;6504;53.766;9.626;2022-10-04T03:01:40;11.00;99.90
12872;DHT22;6504;53.766;9.626;2022-10-04T03:04:14;11.00;99.90
12872;DHT22;6504;53.766;9.626;2022-10-04T03:06:43;11.00;99.90
12872;DHT22;6504;53.766;9.626;2022-10-04T03:09:13;11.00;99.90
12872;DHT22;6504;53.766;9.626;2022-10-04T03:11:48;11.00;99.90
12872;DHT22;6504;53.766;9.626;2022-10-04T03:14:22;11.00;99.90
12872;DHT22;6504;53.766;9.626;2022-10-04T03:16:53;11.00;99.90
12872;DHT22;6504;53.766;9.626;2022-10-04T03:19:25;11.00;99.90
12872;DHT22;6504;53.766;9.626;2022-10-04T03:21:56;11.00;99.90
12872;DHT22;6504;53.766;9.626;2022-10-04T03:24:32;11.00;99.90
12872;DHT22;6504;53.766;9.626;2022-10-04T03:27:05;11.10;99.90
12872;DHT22;6504;53.766;9.626;2022-10-04T03:29:39;11.10;99.90
12872;DHT22;6504;53.766;9.626;2022-10-04T03:32:13;11.10;99.90
12872;DHT22;6504;53.766;9.626;2022-10-04T03:34:50;11.10;99.90
12872;DHT22;6504;53.766;9.626;2022-10-04T03:37:23;11.10;99.90
12872;DHT22;6504;53.766;9.626;2022-10-04T03:39:57;11.10;99.90
12872;DHT22;6504;53.766;9.626;2022-10-04T03:42:28;11.10;99.90
12872;DHT22;6504;53.766;9.626;2022-10-04T03:45:00;11.10;99.90
12872;DHT22;6504;53.766;9.626;2022-10-04T03:47:31;11.10;99.90
12872;DHT22;6504;53.766;9.626;2022-10-04T03:50:05;11.10;99.90
12872;DHT22;6504;53.766;9.626;2022-10-04T03:52:43;11.10;99.90
12872;DHT22;6504;53.766;9.626;2022-10-04T03:55:14;11.10;99.90
12872;DHT22;6504;53.766;9.626;2022-10-04T03:57:47;11.00;99.90
12872;DHT22;6504;53.766;9.626;2022-10-04T04:00:16;11.10;99.90
12872;DHT22;6504;53.766;9.626;2022-10-04T04:02:48;11.10;99.90
12872;DHT22;6504;53.766;9.626;2022-10-04T04:05:21;11.10;99.90
12872;DHT22;6504;53.766;9.626;2022-10-04T04:08:02;11.10;99.90
12872;DHT22;6504;53.766;9.626;2022-10-04T04:10:38;11.10;99.90
12872;DHT22;6504;53.766;9.626;2022-10-04T04:13:17;11.10;99.90
12872;DHT22;6504;53.766;9.626;2022-10-04T04:15:48;11.20;99.90
12872;DHT22;6504;53.766;9.626;2022-10-04T04:18:18;11.20;99.90
12872;DHT22;6504;53.766;9.626;2022-10-04T04:20:48;11.20;99.90
12872;DHT22;6504;53.766;9.626;2022-10-04T04:23:25;11.20;99.90
12872;DHT22;6504;53.766;9.626;2022-10-04T04:26:11;11.20;99.90
12872;DHT22;6504;53.766;9.626;2022-10-04T04:28:49;11.20;99.90
12872;DHT22;6504;53.766;9.626;2022-10-04T04:31:20;11.10;99.90
12872;DHT22;6504;53.766;9.626;2022-10-04T04:33:54;11.10;99.90
12872;DHT22;6504;53.766;9.626;2022-10-04T04:36:26;11.10;99.90
12872;DHT22;6504;53.766;9.626;2022-10-04T04:39:11;11.10;99.90
12872;DHT22;6504;53.766;9.626;2022-10-04T04:42:02;11.10;99.90
12872;DHT22;6504;53.766;9.626;2022-10-04T04:44:33;11.10;99.90
12872;DHT22;6504;53.766;9.626;2022-10-04T04:47:05;11.10;99.90
12872;DHT22;6504;53.766;9.626;2022-10-04T04:49:37;11.10;99.90
12872;DHT22;6504;53.766;9.626;2022-10-04T04:52:15;11.10;99.90
12872;DHT22;6504;53.766;9.626;2022-10-04T04:54:44;11.10;99.90
12872;DHT22;6504;53.766;9.626;2022-10-04T04:57:15;11.10;99.90
12872;DHT22;6504;53.766;9.626;2022-10-04T04:59:50;11.10;99.90
12872;DHT22;6504;53.766;9.626;2022-10-04T05:02:36;11.10;99.90
12872;DHT22;6504;53.766;9.626;2022-10-04T05:05:19;11.10;99.90
12872;DHT22;6504;53.766;9.626;2022-10-04T05:07:48;11.10;99.90
12872;DHT22;6504;53.766;9.626;2022-10-04T05:10:35;11.20;99.90
12872;DHT22;6504;53.766;9.626;2022-10-04T05:13:10;11.20;99.90
12872;DHT22;6504;53.766;9.626;2022-10-04T05:15:43;11.20;99.90
12872;DHT22;6504;53.766;9.626;2022-10-04T05:21:01;11.20;99.90
12872;DHT22;6504;53.766;9.626;2022-10-04T05:23:31;11.20;99.90
12872;DHT22;6504;53.766;9.626;2022-10-04T05:26:00;11.20;99.90
12872;DHT22;6504;53.766;9.626;2022-10-04T05:28:32;11.10;99.90
12872;DHT22;6504;53.766;9.626;2022-10-04T05:31:19;11.10;99.90
12872;DHT22;6504;53.766;9.626;2022-10-04T05:33:57;11.10;99.90
12872;DHT22;6504;53.766;9.626;2022-10-04T05:36:56;11.20;99.90
12872;DHT22;6504;53.766;9.626;2022-10-04T05:39:36;11.20;99.90
12872;DHT22;6504;53.766;9.626;2022-10-04T05:42:13;11.20;99.90
12872;DHT22;6504;53.766;9.626;2022-10-04T05:44:49;11.20;99.90
12872;DHT22;6504;53.766;9.626;2022-10-04T05:47:21;11.20;99.90
12872;DHT22;6504;53.766;9.626;2022-10-04T05:49:54;11.20;99.90
12872;DHT22;6504;53.766;9.626;2022-10-04T05:52:28;11.20;99.90
12872;DHT22;6504;53.766;9.626;2022-10-04T05:55:24;11.20;99.90
12872;DHT22;6504;53.766;9.626;2022-10-04T05:58:18;11.20;99.90
12872;DHT22;6504;53.766;9.626;2022-10-04T06:01:12;11.20;99.90
12872;DHT22;6504;53.766;9.626;2022-10-04T06:03:59;11.20;99.90
12872;DHT22;6504;53.766;9.626;2022-10-04T06:06:38;11.20;99.90
12872;DHT22;6504;53.766;9.626;2022-10-04T06:09:18;11.20;99.90
12872;DHT22;6504;53.766;9.626;2022-10-04T06:11:58;11.20;99.90
12872;DHT22;6504;53.766;9.626;2022-10-04T06:14:55;11.20;99.90
12872;DHT22;6504;53.766;9.626;2022-10-04T06:17:45;11.20;99.90
12872;DHT22;6504;53.766;9.626;2022-10-04T06:20:48;11.20;99.90
12872;DHT22;6504;53.766;9.626;2022-10-04T06:23:21;11.20;99.90
12872;DHT22;6504;53.766;9.626;2022-10-04T06:25:57;11.20;99.90
12872;DHT22;6504;53.766;9.626;2022-10-04T06:28:30;11.20;99.90
12872;DHT22;6504;53.766;9.626;2022-10-04T06:34:21;11.20;99.90
12872;DHT22;6504;53.766;9.626;2022-10-04T06:37:09;11.20;99.90
12872;DHT22;6504;53.766;9.626;2022-10-04T06:40:08;11.20;99.90
12872;DHT22;6504;53.766;9.626;2022-10-04T06:42:55;11.20;99.90
12872;DHT22;6504;53.766;9.626;2022-10-04T06:45:39;11.20;99.90
12872;DHT22;6504;53.766;9.626;2022-10-04T06:48:35;11.20;99.90
12872;DHT22;6504;53.766;9.626;2022-10-04T06:51:13;11.20;99.90
12872;DHT22;6504;53.766;9.626;2022-10-04T06:53:55;11.20;99.90
12872;DHT22;6504;53.766;9.626;2022-10-04T06:56:43;11.20;99.90
12872;DHT22;6504;53.766;9.626;2022-10-04T06:59:26;11.20;99.90
12872;DHT22;6504;53.766;9.626;2022-10-04T07:02:03;11.20;99.90
12872;DHT22;6504;53.766;9.626;2022-10-04T07:04:37;11.20;99.90
12872;DHT22;6504;53.766;9.626;2022-10-04T07:07:31;11.20;99.90
12872;DHT22;6504;53.766;9.626;2022-10-04T07:10:30;11.30;99.90
12872;DHT22;6504;53.766;9.626;2022-10-04T07:13:27;11.30;99.90
12872;DHT22;6504;53.766;9.626;2022-10-04T07:16:02;11.30;99.90
12872;DHT22;6504;53.766;9.626;2022-10-04T07:18:35;11.30;99.90
12872;DHT22;6504;53.766;9.626;2022-10-04T07:21:09;11.30;99.90
12872;DHT22;6504;53.766;9.626;2022-10-04T07:23:46;11.30;99.90
12872;DHT22;6504;53.766;9.626;2022-10-04T07:26:23;11.40;99.90
12872;DHT22;6504;53.766;9.626;2022-10-04T07:28:54;11.40;99.90
12872;DHT22;6504;53.766;9.626;2022-10-04T07:31:38;11.40;99.90
12872;DHT22;6504;53.766;9.626;2022-10-04T07:34:09;11.40;99.90
12872;DHT22;6504;53.766;9.626;2022-10-04T07:36:43;11.40;99.90
12872;DHT22;6504;53.766;9.626;2022-10-04T07:39:17;11.50;99.90
12872;DHT22;6504;53.766;9.626;2022-10-04T07:41:52;11.50;99.90
12872;DHT22;6504;53.766;9.626;2022-10-04T07:44:36;11.50;99.90
12872;DHT22;6504;53.766;9.626;2022-10-04T07:47:12;11.60;99.90
12872;DHT22;6504;53.766;9.626;2022-10-04T07:49:46;11.60;99.90
12872;DHT22;6504;53.766;9.626;2022-10-04T07:52:34;11.60;99.90
12872;DHT22;6504;53.766;9.626;2022-10-04T07:55:27;11.60;99.90
12872;DHT22;6504;53.766;9.626;2022-10-04T07:58:18;11.70;99.90
12872;DHT22;6504;53.766;9.626;2022-10-04T08:00:56;11.70;99.90
12872;DHT22;6504;53.766;9.626;2022-10-04T08:03:47;11.70;99.90
12872;DHT22;6504;53.766;9.626;2022-10-04T08:06:27;11.80;99.90
12872;DHT22;6504;53.766;9.626;2022-10-04T08:09:27;11.80;99.90
12872;DHT22;6504;53.766;9.626;2022-10-04T08:12:13;11.80;99.90
12872;DHT22;6504;53.766;9.626;2022-10-04T08:14:54;11.90;99.90
12872;DHT22;6504;53.766;9.626;2022-10-04T08:17:44;11.90;99.90
12872;DHT22;6504;53.766;9.626;2022-10-04T08:20:30;12.00;99.90
12872;DHT22;6504;53.766;9.626;2022-10-04T08:23:06;12.00;99.90
12872;DHT22;6504;53.766;9.626;2022-10-04T08:25:51;12.10;99.90
12872;DHT22;6504;53.766;9.626;2022-10-04T08:28:35;12.10;99.90
12872;DHT22;6504;53.766;9.626;2022-10-04T08:31:33;12.20;99.90
12872;DHT22;6504;53.766;9.626;2022-10-04T08:34:28;12.20;99.90
12872;DHT22;6504;53.766;9.626;2022-10-04T08:37:09;12.30;99.90
12872;DHT22;6504;53.766;9.626;2022-10-04T08:39:55;12.30;99.90
12872;DHT22;6504;53.766;9.626;2022-10-04T08:42:47;12.40;99.90
12872;DHT22;6504;53.766;9.626;2022-10-04T08:45:48;12.40;99.90
12872;DHT22;6504;53.766;9.626;2022-10-04T08:48:46;12.50;99.90
12872;DHT22;6504;53.766;9.626;2022-10-04T08:58:00;12.70;99.90
12872;DHT22;6504;53.766;9.626;2022-10-04T09:00:49;12.70;99.90
12872;DHT22;6504;53.766;9.626;2022-10-04T09:06:43;12.90;99.90
12872;DHT22;6504;53.766;9.626;2022-10-04T09:09:46;13.00;99.90
12872;DHT22;6504;53.766;9.626;2022-10-04T09:15:50;13.20;99.90
12872;DHT22;6504;53.766;9.626;2022-10-04T09:18:37;13.30;99.90
12872;DHT22;6504;53.766;9.626;2022-10-04T09:21:26;13.30;99.90
12872;DHT22;6504;53.766;9.626;2022-10-04T09:27:17;13.40;99.90
12872;DHT22;6504;53.766;9.626;2022-10-04T09:30:15;13.40;99.90
12872;DHT22;6504;53.766;9.626;2022-10-04T09:33:19;13.50;99.90
12872;DHT22;6504;53.766;9.626;2022-10-04T09:36:18;13.50;99.90
12872;DHT22;6504;53.766;9.626;2022-10-04T09:39:13;13.50;99.90
12872;DHT22;6504;53.766;9.626;2022-10-04T09:42:36;13.60;99.90
12872;DHT22;6504;53.766;9.626;2022-10-04T09:45:36;13.60;99.90
12872;DHT22;6504;53.766;9.626;2022-10-04T09:48:23;13.70;99.90
12872;DHT22;6504;53.766;9.626;2022-10-04T09:51:16;13.70;99.90
12872;DHT22;6504;53.766;9.626;2022-10-04T09:53:56;13.80;99.90
12872;DHT22;6504;53.766;9.626;2022-10-04T09:56:57;13.80;99.90
12872;DHT22;6504;53.766;9.626;2022-10-04T09:59:50;13.90;99.90
12872;DHT22;6504;53.766;9.626;2022-10-04T10:02:55;13.90;99.90
12872;DHT22;6504;53.766;9.626;2022-10-04T10:05:46;13.90;99.90
12872;DHT22;6504;53.766;9.626;2022-10-04T10:08:24;13.90;99.90
12872;DHT22;6504;53.766;9.626;2022-10-04T10:11:05;13.90;99.90
12872;DHT22;6504;53.766;9.626;2022-10-04T10:14:21;14.00;99.90
12872;DHT22;6504;53.766;9.626;2022-10-04T10:17:02;14.00;99.90
12872;DHT22;6504;53.766;9.626;2022-10-04T10:19:51;14.10;99.90
12872;DHT22;6504;53.766;9.626;2022-10-04T10:22:56;14.20;99.90
12872;DHT22;6504;53.766;9.626;2022-10-04T10:25:43;14.30;99.90
12872;DHT22;6504;53.766;9.626;2022-10-04T10:31:26;14.40;99.90
12872;DHT22;6504;53.766;9.626;2022-10-04T10:34:35;14.50;99.90
12872;DHT22;6504;53.766;9.626;2022-10-04T10:37:15;14.60;99.90
12872;DHT22;6504;53.766;9.626;2022-10-04T10:40:15;14.70;99.90
12872;DHT22;6504;53.766;9.626;2022-10-04T10:49:03;14.80;99.90
12872;DHT22;6504;53.766;9.626;2022-10-04T10:51:51;14.90;99.90
12872;DHT22;6504;53.766;9.626;2022-10-04T10:55:05;15.00;99.90
12872;DHT22;6504;53.766;9.626;2022-10-04T10:58:07;15.10;99.90
12872;DHT22;6504;53.766;9.626;2022-10-04T11:00:51;15.10;99.90
12872;DHT22;6504;53.766;9.626;2022-10-04T11:07:02;15.20;99.90
12872;DHT22;6504;53.766;9.626;2022-10-04T11:10:03;15.30;99.90
12872;DHT22;6504;53.766;9.626;2022-10-04T11:12:55;15.40;99.90
12872;DHT22;6504;53.766;9.626;2022-10-04T11:15:54;15.50;99.90
12872;DHT22;6504;53.766;9.626;2022-10-04T11:18:48;15.50;99.90
12872;DHT22;6504;53.766;9.626;2022-10-04T11:21:57;15.50;99.90
12872;DHT22;6504;53.766;9.626;2022-10-04T11:24:55;15.60;99.90
12872;DHT22;6504;53.766;9.626;2022-10-04T11:27:39;15.70;99.90
12872;DHT22;6504;53.766;9.626;2022-10-04T11:30:18;15.70;99.90
12872;DHT22;6504;53.766;9.626;2022-10-04T11:33:11;15.80;99.90
12872;DHT22;6504;53.766;9.626;2022-10-04T11:36:22;15.90;99.90
12872;DHT22;6504;53.766;9.626;2022-10-04T11:42:02;16.20;99.90
12872;DHT22;6504;53.766;9.626;2022-10-04T11:47:52;16.30;99.90
12872;DHT22;6504;53.766;9.626;2022-10-04T11:50:35;16.40;99.90
12872;DHT22;6504;53.766;9.626;2022-10-04T11:53:35;16.50;99.90
12872;DHT22;6504;53.766;9.626;2022-10-04T11:56:25;16.60;99.90
12872;DHT22;6504;53.766;9.626;2022-10-04T11:59:19;16.70;99.90
12872;DHT22;6504;53.766;9.626;2022-10-04T12:02:20;16.70;99.90
12872;DHT22;6504;53.766;9.626;2022-10-04T12:05:15;16.80;99.90
12872;DHT22;6504;53.766;9.626;2022-10-04T12:08:00;16.90;99.90
12872;DHT22;6504;53.766;9.626;2022-10-04T12:10:34;17.00;99.90
12872;DHT22;6504;53.766;9.626;2022-10-04T12:13:23;17.10;99.90
12872;DHT22;6504;53.766;9.626;2022-10-04T12:16:08;17.10;99.90
12872;DHT22;6504;53.766;9.626;2022-10-04T12:19:35;17.20;99.90
12872;DHT22;6504;53.766;9.626;2022-10-04T12:25:58;17.30;99.90
12872;DHT22;6504;53.766;9.626;2022-10-04T12:28:48;17.20;99.90
12872;DHT22;6504;53.766;9.626;2022-10-04T12:31:23;17.30;99.90
12872;DHT22;6504;53.766;9.626;2022-10-04T12:34:03;17.30;99.90
12872;DHT22;6504;53.766;9.626;2022-10-04T12:37:10;17.40;99.90
12872;DHT22;6504;53.766;9.626;2022-10-04T12:40:05;17.40;99.90
12872;DHT22;6504;53.766;9.626;2022-10-04T12:42:42;17.40;99.90
12872;DHT22;6504;53.766;9.626;2022-10-04T12:45:44;17.50;99.90
12872;DHT22;6504;53.766;9.626;2022-10-04T12:48:35;17.50;99.90
12872;DHT22;6504;53.766;9.626;2022-10-04T12:51:26;17.50;99.90
12872;DHT22;6504;53.766;9.626;2022-10-04T12:54:11;17.60;99.90
12872;DHT22;6504;53.766;9.626;2022-10-04T12:56:45;17.60;99.90
12872;DHT22;6504;53.766;9.626;2022-10-04T12:59:40;17.70;99.90
12872;DHT22;6504;53.766;9.626;2022-10-04T13:05:05;17.70;99.90
12872;DHT22;6504;53.766;9.626;2022-10-04T13:10:57;17.70;99.90
12872;DHT22;6504;53.766;9.626;2022-10-04T13:16:54;17.90;99.90
12872;DHT22;6504;53.766;9.626;2022-10-04T13:19:51;17.90;99.90
12872;DHT22;6504;53.766;9.626;2022-10-04T13:22:35;18.00;99.90
12872;DHT22;6504;53.766;9.626;2022-10-04T13:25:53;18.10;99.90
12872;DHT22;6504;53.766;9.626;2022-10-04T13:28:36;18.10;99.90
12872;DHT22;6504;53.766;9.626;2022-10-04T13:31:08;18.10;99.90
12872;DHT22;6504;53.766;9.626;2022-10-04T13:33:45;18.20;99.90
12872;DHT22;6504;53.766;9.626;2022-10-04T13:36:20;18.20;99.90
12872;DHT22;6504;53.766;9.626;2022-10-04T13:39:06;18.20;99.90
12872;DHT22;6504;53.766;9.626;2022-10-04T13:42:01;18.30;99.90
12872;DHT22;6504;53.766;9.626;2022-10-04T13:47:59;18.40;99.90
12872;DHT22;6504;53.766;9.626;2022-10-04T13:50:51;18.40;99.90
12872;DHT22;6504;53.766;9.626;2022-10-04T13:53:29;18.40;99.90
12872;DHT22;6504;53.766;9.626;2022-10-04T13:59:30;18.40;99.90
12872;DHT22;6504;53.766;9.626;2022-10-04T14:02:45;18.50;99.90
12872;DHT22;6504;53.766;9.626;2022-10-04T14:05:51;18.50;99.90
12872;DHT22;6504;53.766;9.626;2022-10-04T14:08:49;18.50;99.90
12872;DHT22;6504;53.766;9.626;2022-10-04T14:12:06;18.60;99.90
12872;DHT22;6504;53.766;9.626;2022-10-04T14:15:08;18.60;99.90
12872;DHT22;6504;53.766;9.626;2022-10-04T14:30:23;18.50;99.90
12872;DHT22;6504;53.766;9.626;2022-10-04T14:33:42;18.50;99.90
12872;DHT22;6504;53.766;9.626;2022-10-04T14:36:35;18.50;99.90
12872;DHT22;6504;53.766;9.626;2022-10-04T14:42:36;18.40;99.90
12872;DHT22;6504;53.766;9.626;2022-10-04T14:45:19;18.50;99.90
12872;DHT22;6504;53.766;9.626;2022-10-04T14:48:35;18.50;99.90
12872;DHT22;6504;53.766;9.626;2022-10-04T14:51:24;18.40;99.90
12872;DHT22;6504;53.766;9.626;2022-10-04T14:53:59;18.50;99.90
12872;DHT22;6504;53.766;9.626;2022-10-04T14:56:50;18.50;99.90
12872;DHT22;6504;53.766;9.626;2022-10-04T14:59:49;18.50;99.90
12872;DHT22;6504;53.766;9.626;2022-10-04T15:02:55;18.40;99.90
12872;DHT22;6504;53.766;9.626;2022-10-04T15:05:53;18.40;99.90
12872;DHT22;6504;53.766;9.626;2022-10-04T15:11:35;18.20;99.90
12872;DHT22;6504;53.766;9.626;2022-10-04T15:14:33;18.20;99.90
12872;DHT22;6504;53.766;9.626;2022-10-04T15:17:10;18.20;99.90
12872;DHT22;6504;53.766;9.626;2022-10-04T15:20:05;18.20;99.90
12872;DHT22;6504;53.766;9.626;2022-10-04T15:22:46;18.20;99.90
12872;DHT22;6504;53.766;9.626;2022-10-04T15:25:35;18.10;99.90
12872;DHT22;6504;53.766;9.626;2022-10-04T15:28:07;18.10;99.90
12872;DHT22;6504;53.766;9.626;2022-10-04T15:30:50;18.10;99.90
12872;DHT22;6504;53.766;9.626;2022-10-04T15:33:28;18.00;99.90
12872;DHT22;6504;53.766;9.626;2022-10-04T15:36:32;18.00;99.90
12872;DHT22;6504;53.766;9.626;2022-10-04T15:39:27;17.90;99.90
12872;DHT22;6504;53.766;9.626;2022-10-04T15:42:07;17.90;99.90
12872;DHT22;6504;53.766;9.626;2022-10-04T15:45:19;17.80;99.90
12872;DHT22;6504;53.766;9.626;2022-10-04T15:48:19;17.70;99.90
12872;DHT22;6504;53.766;9.626;2022-10-04T15:51:11;17.60;99.90
12872;DHT22;6504;53.766;9.626;2022-10-04T15:56:50;17.50;99.90
12872;DHT22;6504;53.766;9.626;2022-10-04T15:59:31;17.40;99.90
12872;DHT22;6504;53.766;9.626;2022-10-04T16:02:27;17.30;99.90
12872;DHT22;6504;53.766;9.626;2022-10-04T16:05:18;17.20;99.90
12872;DHT22;6504;53.766;9.626;2022-10-04T16:08:16;17.10;99.90
12872;DHT22;6504;53.766;9.626;2022-10-04T16:11:11;17.00;99.90
12872;DHT22;6504;53.766;9.626;2022-10-04T16:14:22;16.90;99.90
12872;DHT22;6504;53.766;9.626;2022-10-04T16:17:05;16.80;99.90
12872;DHT22;6504;53.766;9.626;2022-10-04T16:19:53;16.70;99.90
12872;DHT22;6504;53.766;9.626;2022-10-04T16:22:31;16.70;99.90
12872;DHT22;6504;53.766;9.626;2022-10-04T16:25:34;16.60;99.90
12872;DHT22;6504;53.766;9.626;2022-10-04T16:28:10;16.60;99.90
12872;DHT22;6504;53.766;9.626;2022-10-04T16:30:59;16.50;99.90
12872;DHT22;6504;53.766;9.626;2022-10-04T16:33:32;16.50;99.90
12872;DHT22;6504;53.766;9.626;2022-10-04T16:36:09;16.40;99.90
12872;DHT22;6504;53.766;9.626;2022-10-04T16:38:46;16.30;99.90
12872;DHT22;6504;53.766;9.626;2022-10-04T16:41:38;16.30;99.90
12872;DHT22;6504;53.766;9.626;2022-10-04T16:44:22;16.20;99.90
12872;DHT22;6504;53.766;9.626;2022-10-04T16:47:00;16.10;99.90
12872;DHT22;6504;53.766;9.626;2022-10-04T16:49:34;16.10;99.90
12872;DHT22;6504;53.766;9.626;2022-10-04T16:55:42;15.90;99.90
12872;DHT22;6504;53.766;9.626;2022-10-04T17:01:39;15.70;99.90
12872;DHT22;6504;53.766;9.626;2022-10-04T17:04:28;15.60;99.90
12872;DHT22;6504;53.766;9.626;2022-10-04T17:07:02;15.60;99.90
12872;DHT22;6504;53.766;9.626;2022-10-04T17:09:51;15.50;99.90
12872;DHT22;6504;53.766;9.626;2022-10-04T17:12:26;15.40;99.90
12872;DHT22;6504;53.766;9.626;2022-10-04T17:15:21;15.40;99.90
12872;DHT22;6504;53.766;9.626;2022-10-04T17:18:09;15.30;99.90
12872;DHT22;6504;53.766;9.626;2022-10-04T17:20:49;15.30;99.90
12872;DHT22;6504;53.766;9.626;2022-10-04T17:26:42;15.20;99.90
12872;DHT22;6504;53.766;9.626;2022-10-04T17:29:32;15.20;99.90
12872;DHT22;6504;53.766;9.626;2022-10-04T17:32:08;15.10;99.90
12872;DHT22;6504;53.766;9.626;2022-10-04T17:34:54;15.10;99.90
12872;DHT22;6504;53.766;9.626;2022-10-04T17:37:42;15.10;99.90
12872;DHT22;6504;53.766;9.626;2022-10-04T17:40:30;15.10;99.90
12872;DHT22;6504;53.766;9.626;2022-10-04T17:43:09;15.10;99.90
12872;DHT22;6504;53.766;9.626;2022-10-04T17:46:06;15.10;99.90
12872;DHT22;6504;53.766;9.626;2022-10-04T17:48:43;15.00;99.90
12872;DHT22;6504;53.766;9.626;2022-10-04T17:51:42;15.00;99.90
12872;DHT22;6504;53.766;9.626;2022-10-04T17:54:38;14.90;99.90
12872;DHT22;6504;53.766;9.626;2022-10-04T17:57:36;14.90;99.90
12872;DHT22;6504;53.766;9.626;2022-10-04T18:00:11;14.90;99.90
12872;DHT22;6504;53.766;9.626;2022-10-04T18:02:58;14.80;99.90
12872;DHT22;6504;53.766;9.626;2022-10-04T18:05:31;14.80;99.90
12872;DHT22;6504;53.766;9.626;2022-10-04T18:08:09;14.80;99.90
12872;DHT22;6504;53.766;9.626;2022-10-04T18:10:46;14.70;99.90
12872;DHT22;6504;53.766;9.626;2022-10-04T18:13:24;14.60;99.90
12872;DHT22;6504;53.766;9.626;2022-10-04T18:16:00;14.60;99.90
12872;DHT22;6504;53.766;9.626;2022-10-04T18:18:42;14.60;99.90
12872;DHT22;6504;53.766;9.626;2022-10-04T18:25:11;14.50;99.90
12872;DHT22;6504;53.766;9.626;2022-10-04T18:28:10;14.40;99.90
12872;DHT22;6504;53.766;9.626;2022-10-04T18:30:55;14.40;99.90
12872;DHT22;6504;53.766;9.626;2022-10-04T18:33:46;14.40;99.90
12872;DHT22;6504;53.766;9.626;2022-10-04T18:36:18;14.30;99.90
12872;DHT22;6504;53.766;9.626;2022-10-04T18:42:13;14.30;99.90
12872;DHT22;6504;53.766;9.626;2022-10-04T18:44:56;14.20;99.90
12872;DHT22;6504;53.766;9.626;2022-10-04T18:47:38;14.20;99.90
12872;DHT22;6504;53.766;9.626;2022-10-04T19:00:47;14.20;99.90
12872;DHT22;6504;53.766;9.626;2022-10-04T19:03:39;14.00;99.90
12872;DHT22;6504;53.766;9.626;2022-10-04T19:06:20;14.00;99.90
12872;DHT22;6504;53.766;9.626;2022-10-04T19:08:58;14.00;99.90
12872;DHT22;6504;53.766;9.626;2022-10-04T19:11:35;14.00;99.90
12872;DHT22;6504;53.766;9.626;2022-10-04T19:14:16;14.00;99.90
12872;DHT22;6504;53.766;9.626;2022-10-04T19:16:53;14.00;99.90
12872;DHT22;6504;53.766;9.626;2022-10-04T19:19:38;14.00;99.90
12872;DHT22;6504;53.766;9.626;2022-10-04T19:22:28;14.00;99.90
12872;DHT22;6504;53.766;9.626;2022-10-04T19:25:22;14.00;99.90